Time;durP1;ratioP1;P1;durP2;ratioP2;P2;SDS_P1;SDS_P2;PMS_P1;PMS_P2;Temp;Humidity;BMP_temperature;BMP_pressure;BME280_temperature;BME280_humidity;BME280_pressure;Samples;Min_cycle;Max_cycle;Signal;HPM_P1;HPM_P2
2022/08/19 00:01:59;;;;;;;7.93;3.90;;;22.10;97.30;;;;;;6225465;28;20239;-62
2022/08/19 00:05:04;;;;;;;7.13;3.87;;;22.10;97.40;;;;;;6225494;28;20229;-62
2022/08/19 00:08:08;;;;;;;6.73;3.87;;;22.00;97.30;;;;;;6225719;28;20233;-62
2022/08/19 00:11:12;;;;;;;8.43;3.97;;;22.00;97.50;;;;;;6225403;28;20240;-62
2022/08/19 00:14:31;;;;;;;5.67;3.80;;;22.00;97.40;;;;;;6225003;28;20221;-63
2022/08/19 00:17:34;;;;;;;7.17;3.63;;;22.00;97.50;;;;;;6225344;28;20229;-63
2022/08/19 00:20:43;;;;;;;4.60;3.30;;;22.00;97.50;;;;;;6225081;28;20240;-63
2022/08/19 00:23:48;;;;;;;6.43;3.97;;;22.00;97.40;;;;;;6224800;28;20668;-62
2022/08/19 00:26:52;;;;;;;6.47;3.73;;;22.00;97.50;;;;;;6225116;28;20592;-62
2022/08/19 00:29:55;;;;;;;8.13;3.87;;;22.00;97.40;;;;;;6228921;28;20233;-63
2022/08/19 00:32:58;;;;;;;8.30;3.50;;;22.00;97.50;;;;;;6229348;28;20304;-63
2022/08/19 00:36:02;;;;;;;7.87;3.20;;;22.00;97.50;;;;;;6228984;28;20243;-63
2022/08/19 00:39:07;;;;;;;9.33;4.53;;;22.00;97.50;;;;;;6229356;28;20229;-63
2022/08/19 00:42:10;;;;;;;7.30;3.67;;;21.80;97.50;;;;;;6229137;28;20244;-63
2022/08/19 00:45:16;;;;;;;8.77;3.80;;;21.80;97.60;;;;;;6228652;28;20243;-63
2022/08/19 00:48:20;;;;;;;5.60;3.67;;;21.70;97.80;;;;;;6229044;28;20248;-63
2022/08/19 00:51:26;;;;;;;7.30;4.73;;;21.60;97.90;;;;;;6228838;28;20609;-63
2022/08/19 00:54:32;;;;;;;5.03;3.50;;;21.50;98.40;;;;;;6228736;28;20233;-63
2022/08/19 00:57:40;;;;;;;5.80;3.87;;;21.50;98.50;;;;;;6228792;28;20244;-63
2022/08/19 01:00:43;;;;;;;6.93;5.20;;;21.60;98.50;;;;;;6228664;28;20245;-63
2022/08/19 01:03:46;;;;;;;5.57;4.57;;;21.60;98.80;;;;;;6228534;28;20233;-63
2022/08/19 01:07:00;;;;;;;4.97;4.27;;;21.70;98.70;;;;;;6228590;28;20243;-63
2022/08/19 01:10:08;;;;;;;9.10;5.37;;;21.70;98.70;;;;;;6228387;28;20653;-63
2022/08/19 01:13:11;;;;;;;7.30;4.90;;;21.70;98.60;;;;;;6228447;28;20336;-63
2022/08/19 01:16:15;;;;;;;10.17;5.27;;;21.60;98.60;;;;;;6227965;28;20233;-63
2022/08/19 01:19:28;;;;;;;7.90;4.83;;;21.60;98.80;;;;;;6228399;28;20232;-63
2022/08/19 01:22:37;;;;;;;7.47;5.73;;;21.50;99.00;;;;;;6227835;28;20225;-63
2022/08/19 01:25:45;;;;;;;9.70;6.90;;;21.50;99.20;;;;;;6228609;28;20234;-63
2022/08/19 01:28:52;;;;;;;8.13;6.00;;;21.60;99.00;;;;;;6228204;28;20224;-63
2022/08/19 01:31:55;;;;;;;15.10;6.60;;;21.50;99.10;;;;;;6228204;28;20237;-63
2022/08/19 01:35:01;;;;;;;11.10;6.47;;;21.50;99.20;;;;;;6227597;28;20241;-63
2022/08/19 01:38:10;;;;;;;9.87;5.63;;;21.40;99.30;;;;;;6227702;28;20229;-63
2022/08/19 01:41:14;;;;;;;8.20;5.50;;;21.40;99.70;;;;;;6218203;28;20327;-63
2022/08/19 01:44:20;;;;;;;10.60;6.57;;;21.40;99.70;;;;;;6226993;28;20598;-63
2022/08/19 01:47:23;;;;;;;7.13;5.80;;;21.40;99.50;;;;;;6227604;28;20229;-63
2022/08/19 01:50:27;;;;;;;8.57;5.90;;;21.50;99.50;;;;;;6227367;28;20239;-63
2022/08/19 01:53:32;;;;;;;6.83;5.13;;;21.50;99.50;;;;;;6227161;28;20248;-63
2022/08/19 01:56:35;;;;;;;7.43;5.30;;;21.60;99.40;;;;;;6227113;28;20588;-63
2022/08/19 01:59:40;;;;;;;8.93;5.60;;;21.60;99.20;;;;;;6226727;28;20233;-63
2022/08/19 02:02:44;;;;;;;8.37;5.40;;;21.70;99.10;;;;;;6227629;28;20229;-60
2022/08/19 02:05:47;;;;;;;10.97;6.00;;;21.70;99.10;;;;;;6227047;28;20668;-60
2022/08/19 02:08:52;;;;;;;10.70;5.50;;;21.60;99.00;;;;;;6227131;28;20610;-61
2022/08/19 02:11:59;;;;;;;14.03;6.70;;;21.60;99.00;;;;;;6227048;28;20318;-60
2022/08/19 02:15:03;;;;;;;7.50;5.37;;;21.60;99.10;;;;;;6227035;28;20244;-61
2022/08/19 02:18:08;;;;;;;7.20;5.90;;;21.60;99.20;;;;;;6227210;28;20233;-62
2022/08/19 02:21:11;;;;;;;9.20;5.07;;;21.60;99.10;;;;;;6226779;28;20237;-62
2022/08/19 02:24:16;;;;;;;10.10;5.67;;;21.60;99.10;;;;;;6226562;28;20672;-62
2022/08/19 02:27:19;;;;;;;6.53;5.63;;;21.70;99.00;;;;;;6226641;28;20684;-62
2022/08/19 02:30:24;;;;;;;5.20;3.90;;;21.60;99.00;;;;;;6226710;28;20244;-63
2022/08/19 02:33:27;;;;;;;9.40;5.13;;;21.60;99.20;;;;;;6226868;28;20548;-62
2022/08/19 02:36:31;;;;;;;10.77;4.67;;;21.60;99.10;;;;;;6226617;28;20244;-62
2022/08/19 02:39:35;;;;;;;9.47;5.93;;;21.60;99.00;;;;;;6226954;28;20225;-62
2022/08/19 02:42:39;;;;;;;8.93;5.50;;;21.60;99.10;;;;;;6226566;28;20669;-63
2022/08/19 02:45:42;;;;;;;7.40;5.10;;;21.60;99.00;;;;;;6221454;28;20236;-62
2022/08/19 02:48:45;;;;;;;9.60;6.87;;;21.60;99.00;;;;;;6226434;28;20240;-62
2022/08/19 02:51:49;;;;;;;8.83;4.70;;;21.60;99.10;;;;;;6225215;28;20224;-63
2022/08/19 02:54:53;;;;;;;6.40;4.20;;;21.50;99.00;;;;;;6225719;28;20225;-63
2022/08/19 02:57:56;;;;;;;8.73;5.80;;;21.50;99.00;;;;;;6225546;28;20788;-63
2022/08/19 03:00:59;;;;;;;8.23;6.67;;;21.50;98.90;;;;;;6225521;28;20652;-63
2022/08/19 03:04:05;;;;;;;6.57;4.67;;;21.50;99.10;;;;;;6225972;28;20201;-63
2022/08/19 03:07:08;;;;;;;9.20;5.67;;;21.50;99.10;;;;;;6225792;28;20229;-63
2022/08/19 03:10:14;;;;;;;8.33;5.13;;;21.60;99.10;;;;;;6225947;28;20248;-62
2022/08/19 03:13:19;;;;;;;6.80;5.10;;;21.60;99.10;;;;;;6225728;28;20312;-62
2022/08/19 03:16:23;;;;;;;9.90;5.30;;;21.60;99.40;;;;;;6225653;28;20237;-61
2022/08/19 03:19:27;;;;;;;9.90;5.73;;;21.60;99.10;;;;;;6226286;28;20229;-62
2022/08/19 03:22:30;;;;;;;10.70;5.40;;;21.50;99.10;;;;;;6226074;28;20229;-62
2022/08/19 03:25:40;;;;;;;9.80;6.47;;;21.50;99.20;;;;;;6225840;28;20233;-62
2022/08/19 03:28:44;;;;;;;10.30;6.17;;;21.50;99.30;;;;;;6225534;28;20229;-62
2022/08/19 03:31:54;;;;;;;8.77;5.67;;;21.60;99.30;;;;;;6225791;28;20236;-62
2022/08/19 03:34:57;;;;;;;9.47;7.17;;;21.60;99.10;;;;;;6225660;28;20233;-62
2022/08/19 03:38:00;;;;;;;13.43;7.20;;;21.60;99.00;;;;;;6225619;28;20233;-62
2022/08/19 03:41:07;;;;;;;10.37;6.70;;;21.60;99.00;;;;;;6225872;28;20240;-62
2022/08/19 03:44:10;;;;;;;8.73;7.27;;;21.60;99.00;;;;;;6225570;28;20229;-62
2022/08/19 03:47:20;;;;;;;11.00;7.03;;;21.50;99.00;;;;;;6225503;28;20676;-62
2022/08/19 03:50:24;;;;;;;10.77;6.60;;;21.50;99.20;;;;;;6226551;28;20224;-62
2022/08/19 03:53:29;;;;;;;15.03;6.30;;;21.50;99.40;;;;;;6236910;28;20236;-62
2022/08/19 03:56:35;;;;;;;8.23;5.63;;;21.40;99.90;;;;;;6231505;28;20232;-61
2022/08/19 03:59:39;;;;;;;10.10;4.97;;;21.30;99.90;;;;;;6237891;28;20564;-61
2022/08/19 04:02:43;;;;;;;15.53;5.17;;;21.10;99.90;;;;;;6240060;28;20232;-62
2022/08/19 04:06:10;;;;;;;10.60;5.13;;;21.00;99.90;;;;;;6254049;28;20228;-61
2022/08/19 04:09:14;;;;;;;9.90;5.40;;;20.90;99.90;;;;;;6254439;28;20695;-62
2022/08/19 04:12:20;;;;;;;7.10;4.87;;;21.00;99.90;;;;;;6254209;28;20239;-62
2022/08/19 04:15:23;;;;;;;7.40;5.13;;;21.00;99.90;;;;;;6253888;28;20232;-61
2022/08/19 04:18:26;;;;;;;8.33;5.77;;;21.10;99.90;;;;;;6254322;28;20232;-63
2022/08/19 04:21:30;;;;;;;7.70;5.13;;;21.10;99.90;;;;;;6254330;28;20225;-62
2022/08/19 04:24:34;;;;;;;8.63;5.00;;;21.20;99.90;;;;;;6253833;28;20240;-62
2022/08/19 04:27:38;;;;;;;10.80;5.23;;;21.20;99.90;;;;;;6254090;28;20236;-62
2022/08/19 04:30:44;;;;;;;8.27;5.17;;;21.30;99.90;;;;;;6253955;28;20232;-62
2022/08/19 04:33:47;;;;;;;8.77;6.77;;;21.40;99.90;;;;;;6254127;28;20259;-62
2022/08/19 04:36:51;;;;;;;5.37;3.20;;;21.40;99.90;;;;;;6253398;28;20243;-62
2022/08/19 04:43:16;;;;;;;8.33;5.03;;;21.70;99.90;;;;;;6253521;28;20225;-62
2022/08/19 04:46:20;;;;;;;6.60;5.20;;;21.90;99.90;;;;;;6253287;28;20244;-62
2022/08/19 04:49:42;;;;;;;9.73;5.57;;;22.00;99.50;;;;;;6253723;28;20315;-62
2022/08/19 04:52:45;;;;;;;6.87;5.03;;;22.10;99.20;;;;;;6239861;28;20251;-62
2022/08/19 04:55:48;;;;;;;7.10;4.43;;;22.10;99.00;;;;;;6253529;28;20236;-63
2022/08/19 04:58:54;;;;;;;8.13;5.20;;;22.20;99.00;;;;;;6253378;28;20235;-63
2022/08/19 05:01:57;;;;;;;6.90;5.23;;;22.20;99.00;;;;;;6253538;28;20240;-63
2022/08/19 05:05:00;;;;;;;6.37;4.17;;;22.30;98.80;;;;;;6253371;28;20245;-63
2022/08/19 05:08:05;;;;;;;9.17;4.67;;;22.30;98.70;;;;;;6252653;28;20239;-64
2022/08/19 05:11:11;;;;;;;7.50;5.00;;;22.30;98.20;;;;;;6252959;28;20339;-63
2022/08/19 05:14:17;;;;;;;7.27;4.90;;;22.60;98.10;;;;;;6251585;28;20228;-63
2022/08/19 05:17:20;;;;;;;6.03;4.33;;;22.60;97.90;;;;;;6252848;28;20232;-63
2022/08/19 05:23:51;;;;;;;8.90;4.10;;;22.70;97.40;;;;;;6252698;28;20225;-63
2022/08/19 05:26:56;;;;;;;9.90;6.27;;;22.70;97.40;;;;;;6252910;28;20243;-64
2022/08/19 05:30:01;;;;;;;10.33;5.70;;;22.80;97.30;;;;;;6252668;28;20567;-65
2022/08/19 05:33:04;;;;;;;11.50;5.23;;;22.80;97.20;;;;;;6252572;28;20232;-64
2022/08/19 05:36:08;;;;;;;7.27;4.60;;;22.90;97.10;;;;;;6252208;28;20239;-63
2022/08/19 05:39:14;;;;;;;15.53;5.43;;;23.10;96.90;;;;;;6252309;28;20228;-63
2022/08/19 05:42:19;;;;;;;8.33;5.10;;;23.20;96.60;;;;;;6252259;28;20568;-62
2022/08/19 05:45:24;;;;;;;7.40;5.17;;;23.30;96.00;;;;;;6252091;28;20248;-63
2022/08/19 05:48:28;;;;;;;8.23;6.23;;;23.50;95.90;;;;;;6251894;28;20239;-63
2022/08/19 05:51:31;;;;;;;11.37;5.30;;;23.60;95.20;;;;;;6251972;28;20228;-63
2022/08/19 05:54:35;;;;;;;9.53;5.40;;;23.70;94.90;;;;;;6251674;28;20550;-63
2022/08/19 05:57:38;;;;;;;15.43;5.60;;;23.80;94.80;;;;;;6242503;28;20233;-63
2022/08/19 06:00:44;;;;;;;8.90;5.10;;;23.90;94.70;;;;;;6251946;28;20228;-64
2022/08/19 06:03:48;;;;;;;9.43;5.20;;;23.90;94.40;;;;;;6251668;28;20224;-63
2022/08/19 06:06:53;;;;;;;11.40;5.97;;;23.80;94.20;;;;;;6251770;28;20247;-63
2022/08/19 06:09:57;;;;;;;11.80;5.80;;;23.80;94.10;;;;;;6252041;28;20270;-63
2022/08/19 06:13:04;;;;;;;11.43;5.90;;;23.90;94.00;;;;;;6251289;28;20193;-63
2022/08/19 06:16:08;;;;;;;7.70;5.30;;;23.90;94.10;;;;;;6251167;28;20664;-62
2022/08/19 06:19:15;;;;;;;8.27;5.07;;;23.90;93.90;;;;;;6251644;28;20228;-63
2022/08/19 06:22:18;;;;;;;6.73;5.47;;;23.90;93.70;;;;;;6251487;28;20228;-63
2022/08/19 06:25:21;;;;;;;7.23;5.60;;;24.00;93.60;;;;;;6251212;28;20680;-63
2022/08/19 06:28:24;;;;;;;7.13;5.20;;;24.00;93.50;;;;;;6251553;28;20241;-63
2022/08/19 06:31:31;;;;;;;11.37;5.57;;;24.00;93.50;;;;;;6251483;28;20228;-63
2022/08/19 06:34:35;;;;;;;8.63;5.33;;;24.10;93.50;;;;;;6250805;28;20240;-65
2022/08/19 06:37:38;;;;;;;7.23;5.13;;;24.20;93.40;;;;;;6251434;28;20668;-65
2022/08/19 06:40:45;;;;;;;9.23;5.07;;;24.40;93.40;;;;;;6251621;28;20238;-66
2022/08/19 06:43:48;;;;;;;10.90;4.80;;;24.70;93.10;;;;;;6250801;28;20698;-66
2022/08/19 06:46:57;;;;;;;8.00;5.20;;;25.10;92.10;;;;;;6250772;28;20236;-65
2022/08/19 06:50:02;;;;;;;6.57;4.67;;;25.40;91.50;;;;;;6251013;28;20245;-66
2022/08/19 06:53:07;;;;;;;5.57;4.97;;;25.50;91.20;;;;;;6250774;28;20232;-66
2022/08/19 06:56:10;;;;;;;8.53;5.27;;;25.70;90.70;;;;;;6250552;28;20234;-65
2022/08/19 06:59:17;;;;;;;5.70;4.67;;;25.80;90.40;;;;;;6241189;28;20228;-66
2022/08/19 07:02:25;;;;;;;5.67;4.23;;;25.80;90.10;;;;;;6250705;28;20259;-66
2022/08/19 07:05:29;;;;;;;8.93;4.97;;;25.70;90.00;;;;;;6250497;28;20243;-65
2022/08/19 07:08:33;;;;;;;7.63;5.43;;;25.60;89.00;;;;;;6250346;28;20243;-65
2022/08/19 07:11:37;;;;;;;12.10;5.37;;;25.40;89.10;;;;;;6249997;28;20680;-66
2022/08/19 07:14:40;;;;;;;9.03;5.10;;;25.30;89.50;;;;;;6250493;28;20243;-65
2022/08/19 07:17:45;;;;;;;8.40;4.40;;;25.20;90.30;;;;;;6250583;28;20231;-65
2022/08/19 07:21:04;;;;;;;10.27;5.50;;;25.10;90.90;;;;;;6241370;28;20231;-65
2022/08/19 07:24:12;;;;;;;5.47;4.57;;;25.10;91.40;;;;;;6225636;28;20236;-66
2022/08/19 07:27:15;;;;;;;9.83;5.23;;;25.10;91.60;;;;;;6225723;28;20228;-66
2022/08/19 07:30:19;;;;;;;7.43;4.80;;;25.10;92.00;;;;;;6226040;28;20233;-65
2022/08/19 07:33:23;;;;;;;10.97;5.20;;;25.00;93.00;;;;;;6225674;28;20229;-65
2022/08/19 07:36:32;;;;;;;7.37;4.23;;;24.90;93.00;;;;;;6225420;28;20303;-66
2022/08/19 07:39:37;;;;;;;10.50;4.90;;;24.80;93.80;;;;;;6229795;28;20236;-65
2022/08/19 07:42:41;;;;;;;6.90;4.67;;;24.70;93.30;;;;;;6228684;28;20232;-64
2022/08/19 07:45:44;;;;;;;5.57;4.87;;;24.60;94.40;;;;;;6226723;28;20232;-65
2022/08/19 07:48:50;;;;;;;7.63;5.07;;;24.60;94.70;;;;;;6229128;28;20228;-65
2022/08/19 07:51:56;;;;;;;4.37;3.90;;;24.50;94.90;;;;;;6229249;28;20239;-66
2022/08/19 07:55:03;;;;;;;5.27;3.00;;;24.40;95.20;;;;;;6235742;28;20259;-65
2022/08/19 07:58:06;;;;;;;3.93;2.10;;;24.30;93.60;;;;;;6254406;28;20547;-65
2022/08/19 08:01:12;;;;;;;6.10;3.37;;;24.20;93.40;;;;;;6236790;28;20224;-64
2022/08/19 08:10:58;;;;;;;6.70;5.73;;;24.00;94.80;;;;;;6228995;28;20233;-64
2022/08/19 08:14:02;;;;;;;6.60;5.60;;;24.10;95.80;;;;;;6229514;28;20233;-65
2022/08/19 08:17:07;;;;;;;8.90;5.00;;;24.10;96.60;;;;;;6229312;28;20231;-65
2022/08/19 08:20:15;;;;;;;5.57;4.33;;;24.00;96.90;;;;;;6230082;28;20229;-66
2022/08/19 08:23:25;;;;;;;8.77;5.10;;;24.10;97.40;;;;;;6229697;28;20232;-66
2022/08/19 08:26:29;;;;;;;4.77;4.33;;;24.10;99.10;;;;;;6229471;28;20241;-66
2022/08/19 08:29:36;;;;;;;7.00;4.70;;;24.00;99.90;;;;;;6229465;28;20293;-66
2022/08/19 08:32:41;;;;;;;8.93;4.70;;;24.10;99.90;;;;;;6228506;28;20233;-64
2022/08/19 08:35:46;;;;;;;7.77;4.50;;;24.00;99.90;;;;;;6228062;28;20260;-65
2022/08/19 08:38:49;;;;;;;6.67;4.20;;;23.90;99.90;;;;;;6228355;28;20242;-66
2022/08/19 08:41:58;;;;;;;7.93;4.50;;;23.90;99.90;;;;;;6228600;28;20244;-66
2022/08/19 08:45:04;;;;;;;8.60;4.40;;;23.70;99.90;;;;;;6228076;28;20234;-65
2022/08/19 08:48:17;;;;;;;8.13;4.17;;;23.60;99.90;;;;;;6228696;28;20247;-65
2022/08/19 08:51:32;;;;;;;5.90;4.47;;;23.70;99.90;;;;;;6227740;28;20315;-65
2022/08/19 08:54:41;;;;;;;4.73;3.40;;;23.70;99.90;;;;;;6229187;28;20660;-65
2022/08/19 08:58:01;;;;;;;9.17;5.97;;;23.80;99.90;;;;;;6228546;28;20224;-66
2022/08/19 09:01:04;;;;;;;7.03;5.50;;;23.90;99.90;;;;;;6229144;28;20186;-67
2022/08/19 09:04:08;;;;;;;6.50;4.13;;;24.10;99.90;;;;;;6223788;28;20256;-67
2022/08/19 09:07:27;;;;;;;7.17;4.80;;;24.30;99.90;;;;;;6227833;28;20233;-67
2022/08/19 09:10:40;;;;;;;8.13;4.73;;;24.40;99.90;;;;;;6227271;28;20252;-67
2022/08/19 09:13:56;;;;;;;9.80;5.43;;;24.40;99.90;;;;;;6228156;28;20243;-67
2022/08/19 09:17:03;;;;;;;12.60;5.50;;;24.40;99.90;;;;;;6232123;28;20243;-67
2022/08/19 09:20:13;;;;;;;8.80;4.23;;;24.50;99.90;;;;;;6225563;28;20371;-67
2022/08/19 09:23:17;;;;;;;7.47;4.30;;;24.60;99.90;;;;;;6237896;28;20221;-66
2022/08/19 09:26:29;;;;;;;6.10;4.53;;;24.70;99.90;;;;;;6228239;28;20241;-65
2022/08/19 09:29:53;;;;;;;4.83;4.33;;;24.80;99.90;;;;;;6226891;28;20237;-66
2022/08/19 09:32:56;;;;;;;6.50;3.93;;;25.00;99.90;;;;;;6227423;28;20319;-67
2022/08/19 09:36:08;;;;;;;7.10;4.60;;;25.20;99.90;;;;;;6228049;28;20563;-66
2022/08/19 09:39:12;;;;;;;5.20;4.30;;;25.30;99.90;;;;;;6228478;28;20575;-67
2022/08/19 09:42:18;;;;;;;5.93;4.50;;;25.70;99.90;;;;;;6228623;28;20233;-67
2022/08/19 09:45:33;;;;;;;10.23;4.77;;;26.20;99.50;;;;;;6227633;28;20255;-67
2022/08/19 09:48:36;;;;;;;7.80;4.53;;;26.90;98.20;;;;;;6227982;28;20232;-67
2022/08/19 09:51:40;;;;;;;9.27;6.03;;;27.20;97.20;;;;;;6227432;28;20695;-65
2022/08/19 09:54:45;;;;;;;5.47;4.90;;;27.40;96.50;;;;;;6226388;28;20223;-65
2022/08/19 09:57:55;;;;;;;5.63;4.40;;;27.50;96.10;;;;;;6226328;28;20205;-67
2022/08/19 10:00:59;;;;;;;7.33;5.27;;;27.50;95.90;;;;;;6225655;28;20220;-66
2022/08/19 10:04:04;;;;;;;8.57;4.70;;;27.40;95.80;;;;;;6226006;28;20205;-67
2022/08/19 10:07:21;;;;;;;9.23;5.63;;;27.10;96.60;;;;;;6225733;28;20228;-66
2022/08/19 10:10:39;;;;;;;9.10;5.80;;;26.80;96.60;;;;;;6225423;28;20237;-67
2022/08/19 10:13:45;;;;;;;6.57;4.50;;;26.60;97.10;;;;;;6226017;28;20371;-64
2022/08/19 10:16:49;;;;;;;6.37;4.40;;;26.50;97.20;;;;;;6212341;28;20272;-65
2022/08/19 10:19:52;;;;;;;8.20;4.63;;;26.40;97.20;;;;;;6202005;28;20233;-65
2022/08/19 10:22:58;;;;;;;6.87;4.37;;;26.20;97.30;;;;;;6201662;28;20232;-67
2022/08/19 10:26:05;;;;;;;7.67;5.37;;;26.10;97.40;;;;;;6204148;28;20557;-65
2022/08/19 10:29:09;;;;;;;5.93;5.03;;;26.00;98.30;;;;;;6225240;28;20641;-66
2022/08/19 10:32:12;;;;;;;8.30;7.10;;;26.00;98.60;;;;;;6225685;28;20243;-65
2022/08/19 10:35:17;;;;;;;7.57;5.33;;;26.00;98.90;;;;;;6225883;28;20286;-65
2022/08/19 10:38:24;;;;;;;9.17;5.10;;;25.90;99.30;;;;;;6225339;28;20665;-69
2022/08/19 10:41:37;;;;;;;9.77;5.43;;;25.90;99.30;;;;;;6225529;28;20239;-66
2022/08/19 10:44:40;;;;;;;8.77;5.40;;;25.90;99.60;;;;;;6225542;28;20242;-68
2022/08/19 10:47:44;;;;;;;6.30;5.03;;;26.10;99.70;;;;;;6225594;28;20315;-68
2022/08/19 10:54:07;;;;;;;5.17;4.67;;;26.90;98.80;;;;;;6224365;28;20243;-70
2022/08/19 10:57:15;;;;;;;12.77;5.83;;;27.10;97.50;;;;;;6224017;28;20664;-68
2022/08/19 11:00:18;;;;;;;6.30;5.03;;;26.90;97.40;;;;;;6224638;28;20239;-68
2022/08/19 11:03:21;;;;;;;5.00;4.33;;;26.90;97.20;;;;;;6224904;28;20232;-68
2022/08/19 11:06:25;;;;;;;9.10;4.27;;;27.00;97.50;;;;;;6225876;28;20236;-67
2022/08/19 11:09:29;;;;;;;7.93;5.03;;;27.30;96.80;;;;;;6225364;28;20330;-67
2022/08/19 11:12:40;;;;;;;12.83;5.03;;;27.30;96.00;;;;;;6224321;28;20228;-68
2022/08/19 11:15:43;;;;;;;7.30;4.80;;;27.30;96.00;;;;;;6215909;28;20642;-68
2022/08/19 11:18:49;;;;;;;6.10;4.70;;;27.20;96.70;;;;;;6225596;28;20220;-68
2022/08/19 11:21:54;;;;;;;7.07;4.50;;;27.40;96.60;;;;;;6225902;28;20209;-68
2022/08/19 11:25:02;;;;;;;5.93;4.43;;;27.70;96.10;;;;;;6225690;28;20225;-69
2022/08/19 11:28:06;;;;;;;5.30;4.30;;;27.90;95.90;;;;;;6225453;28;20343;-68
2022/08/19 11:31:13;;;;;;;3.90;3.50;;;27.90;95.00;;;;;;6225515;28;20205;-67
2022/08/19 11:34:20;;;;;;;7.03;3.90;;;27.80;93.50;;;;;;6225427;28;20229;-67
2022/08/19 11:37:23;;;;;;;6.90;4.17;;;27.70;93.10;;;;;;6225185;28;20243;-69
2022/08/19 11:40:26;;;;;;;6.90;4.13;;;27.70;93.30;;;;;;6225492;28;20235;-68
2022/08/19 11:43:31;;;;;;;6.00;4.40;;;27.60;93.40;;;;;;6225496;28;20228;-68
2022/08/19 11:46:39;;;;;;;9.70;5.10;;;27.60;93.40;;;;;;6225392;28;20339;-68
2022/08/19 11:49:43;;;;;;;8.10;3.40;;;27.70;93.30;;;;;;6225312;28;20236;-68
2022/08/19 11:52:47;;;;;;;5.43;3.33;;;28.00;92.50;;;;;;6225043;28;20574;-68
2022/08/19 11:55:51;;;;;;;5.07;3.10;;;28.40;91.10;;;;;;6224862;28;20332;-67
2022/08/19 11:58:57;;;;;;;7.00;4.30;;;28.40;88.20;;;;;;6225987;28;20571;-67
2022/08/19 12:02:00;;;;;;;10.30;3.50;;;28.60;88.10;;;;;;6225042;28;20665;-67
2022/08/19 12:05:03;;;;;;;6.43;4.17;;;28.90;87.10;;;;;;6225233;28;20243;-68
2022/08/19 12:08:12;;;;;;;4.80;3.00;;;29.20;84.70;;;;;;6224654;28;20252;-68
2022/08/19 12:11:15;;;;;;;7.90;3.55;;;29.50;82.00;;;;;;6225237;28;20239;-68
2022/08/19 12:14:20;;;;;;;6.60;3.40;;;29.90;80.10;;;;;;6224748;28;20566;-69
2022/08/19 12:17:23;;;;;;;6.80;4.10;;;30.10;78.50;;;;;;6215999;28;20229;-68
2022/08/19 12:20:26;;;;;;;9.40;3.70;;;30.00;75.60;;;;;;6224744;28;20236;-68
2022/08/19 12:23:30;;;;;;;13.57;3.65;;;29.90;74.30;;;;;;6225740;28;20554;-69
2022/08/19 12:26:33;;;;;;;6.20;2.88;;;29.80;72.40;;;;;;6229479;28;20233;-68
2022/08/19 12:29:58;;;;;;;8.20;3.80;;;29.70;74.40;;;;;;6229580;28;20221;-68
2022/08/19 12:33:01;;;;;;;5.65;3.20;;;29.90;73.60;;;;;;6229664;28;20229;-68
2022/08/19 12:36:06;;;;;;;6.90;3.30;;;30.10;72.30;;;;;;6229063;28;20233;-68
2022/08/19 12:39:10;;;;;;;10.43;3.67;;;30.20;69.90;;;;;;6229131;28;20927;-68
2022/08/19 12:42:17;;;;;;;6.63;3.50;;;29.90;71.20;;;;;;6229192;28;20580;-68
2022/08/19 12:45:22;;;;;;;5.80;3.27;;;29.60;70.50;;;;;;6228642;28;20792;-67
2022/08/19 12:48:25;;;;;;;6.13;3.60;;;29.30;71.90;;;;;;6228905;28;20233;-68
2022/08/19 12:51:35;;;;;;;7.47;3.10;;;29.30;72.10;;;;;;6228502;28;20236;-68
2022/08/19 12:54:39;;;;;;;6.22;3.28;;;29.40;70.60;;;;;;6228538;28;20680;-69
2022/08/19 12:57:42;;;;;;;9.13;3.40;;;29.70;71.00;;;;;;6228319;28;20561;-69
2022/08/19 13:00:46;;;;;;;5.23;3.40;;;29.70;66.40;;;;;;6228702;28;20832;-68
2022/08/19 13:03:51;;;;;;;9.32;2.75;;;29.40;66.70;;;;;;6227169;28;20231;-67
2022/08/19 13:06:55;;;;;;;7.10;3.67;;;29.40;66.90;;;;;;6228152;28;20229;-68
2022/08/19 13:09:58;;;;;;;6.53;3.40;;;29.60;67.40;;;;;;6227509;28;20239;-68
2022/08/19 13:13:02;;;;;;;7.50;3.97;;;29.70;66.90;;;;;;6227846;28;20219;-68
2022/08/19 13:16:07;;;;;;;9.00;3.58;;;29.40;68.00;;;;;;6227434;28;20687;-67
2022/08/19 13:19:11;;;;;;;5.38;4.00;;;29.40;67.90;;;;;;6222604;28;20236;-68
2022/08/19 13:22:15;;;;;;;8.20;4.38;;;29.50;68.30;;;;;;6227601;28;20648;-69
2022/08/19 13:25:19;;;;;;;9.57;3.47;;;29.50;67.50;;;;;;6227259;28;20282;-65
2022/08/19 13:28:22;;;;;;;11.10;3.57;;;29.40;67.30;;;;;;6227174;28;20232;-70
2022/08/19 13:34:55;;;;;;;10.07;4.35;;;29.40;67.60;;;;;;6227118;28;20248;-68
2022/08/19 13:37:58;;;;;;;6.43;3.20;;;29.50;67.90;;;;;;6226803;28;20316;-68
2022/08/19 13:41:06;;;;;;;9.50;3.40;;;29.60;67.20;;;;;;6227168;28;20239;-68
2022/08/19 13:44:17;;;;;;;6.70;3.38;;;29.50;67.00;;;;;;6226970;28;20681;-69
2022/08/19 13:47:22;;;;;;;8.70;3.53;;;29.40;67.30;;;;;;6227285;28;20250;-69
2022/08/19 13:50:27;;;;;;;5.40;3.70;;;29.50;68.30;;;;;;6226864;28;20888;-68
2022/08/19 13:53:31;;;;;;;6.35;4.05;;;29.50;68.00;;;;;;6226580;28;20229;-69
2022/08/19 13:56:35;;;;;;;7.30;3.43;;;29.70;66.10;;;;;;6225700;28;20228;-68
2022/08/19 13:59:38;;;;;;;6.28;2.67;;;29.80;64.90;;;;;;6226210;28;20238;-69
2022/08/19 14:02:42;;;;;;;9.60;3.42;;;29.90;63.50;;;;;;6225814;28;20532;-68
2022/08/19 14:05:46;;;;;;;6.40;3.63;;;29.80;64.70;;;;;;6225416;28;20567;-68
2022/08/19 14:08:50;;;;;;;9.55;3.63;;;29.70;65.40;;;;;;6231000;28;20264;-68
2022/08/19 14:11:53;;;;;;;7.30;3.50;;;29.50;65.80;;;;;;6234991;28;20558;-68
2022/08/19 14:14:56;;;;;;;7.00;3.30;;;29.30;65.50;;;;;;6240170;28;20250;-68
2022/08/19 14:18:00;;;;;;;8.50;3.53;;;29.20;65.80;;;;;;6242263;28;20225;-68
2022/08/19 14:21:04;;;;;;;7.90;2.97;;;29.10;66.10;;;;;;6230389;28;20659;-68
2022/08/19 14:24:08;;;;;;;11.40;4.10;;;29.00;66.80;;;;;;6235851;28;20242;-69
2022/08/19 14:27:11;;;;;;;7.03;3.47;;;28.90;66.90;;;;;;6229662;28;20301;-68
2022/08/19 14:30:20;;;;;;;5.93;3.70;;;29.00;66.70;;;;;;6240119;28;20282;-68
2022/08/19 14:33:25;;;;;;;9.30;3.90;;;28.90;65.50;;;;;;6232455;28;20220;-67
2022/08/19 14:36:34;;;;;;;5.90;3.90;;;28.90;66.20;;;;;;6234819;28;20571;-68
2022/08/19 14:39:41;;;;;;;9.00;3.90;;;28.80;67.20;;;;;;6235717;28;20216;-67
2022/08/19 14:42:45;;;;;;;7.60;4.00;;;28.60;68.80;;;;;;6238743;28;20294;-67
2022/08/19 14:45:48;;;;;;;10.63;4.40;;;28.60;69.80;;;;;;6241228;28;20243;-68
2022/08/19 14:48:53;;;;;;;8.20;4.30;;;28.60;69.20;;;;;;6231315;28;20216;-68
2022/08/19 14:51:58;;;;;;;9.23;4.80;;;28.80;68.90;;;;;;6250328;28;20302;-68
2022/08/19 14:55:01;;;;;;;10.03;3.80;;;29.00;68.80;;;;;;6250560;28;20232;-68
2022/08/19 14:58:09;;;;;;;7.67;4.27;;;29.10;67.70;;;;;;6250620;28;20498;-69
2022/08/19 15:01:32;;;;;;;6.63;4.20;;;29.10;67.10;;;;;;6249936;28;20253;-68
2022/08/19 15:04:36;;;;;;;8.20;4.03;;;29.20;67.30;;;;;;6250690;28;20251;-68
2022/08/19 15:07:40;;;;;;;13.18;4.25;;;29.50;65.60;;;;;;6250467;28;20238;-67
2022/08/19 15:10:43;;;;;;;7.40;4.15;;;29.50;65.70;;;;;;6250095;28;20239;-67
2022/08/19 15:13:47;;;;;;;7.00;3.33;;;29.50;66.00;;;;;;6250199;28;20573;-68
2022/08/19 15:16:50;;;;;;;9.75;6.35;;;29.50;66.00;;;;;;6250400;28;20236;-68
2022/08/19 15:19:54;;;;;;;4.95;3.83;;;29.40;65.80;;;;;;6250551;28;20249;-69
2022/08/19 15:22:58;;;;;;;7.55;3.33;;;29.50;65.90;;;;;;6250607;28;20234;-69
2022/08/19 15:26:01;;;;;;;6.85;3.60;;;29.50;66.00;;;;;;6246367;28;20236;-68
2022/08/19 15:29:05;;;;;;;6.50;3.78;;;29.40;65.60;;;;;;6237580;28;20224;-69
2022/08/19 15:32:09;;;;;;;7.77;4.00;;;29.30;65.40;;;;;;6242846;28;20556;-68
2022/08/19 15:35:13;;;;;;;9.60;4.07;;;29.20;66.00;;;;;;6245257;28;20247;-66
2022/08/19 15:38:18;;;;;;;9.47;3.90;;;29.00;66.30;;;;;;6224956;28;20239;-66
2022/08/19 15:41:29;;;;;;;7.27;3.80;;;28.80;67.10;;;;;;6224743;28;20236;-67
2022/08/19 15:44:33;;;;;;;7.93;3.90;;;28.70;68.80;;;;;;6238446;28;20267;-67
2022/08/19 15:47:37;;;;;;;9.47;3.90;;;28.60;69.70;;;;;;6241749;28;20228;-66
2022/08/19 15:50:41;;;;;;;8.70;4.00;;;28.40;68.60;;;;;;6248891;28;20250;-66
2022/08/19 15:53:45;;;;;;;8.50;4.10;;;28.30;69.20;;;;;;6234199;28;20565;-66
2022/08/19 16:06:54;;;;;;;7.83;3.90;;;28.00;70.80;;;;;;6235708;28;20228;-67
2022/08/19 16:09:57;;;;;;;14.73;4.63;;;27.90;70.90;;;;;;6239389;28;20327;-66
2022/08/19 16:13:21;;;;;;;11.53;4.27;;;27.80;71.90;;;;;;6241858;28;20709;-68
2022/08/19 16:16:27;;;;;;;7.80;3.50;;;27.60;72.30;;;;;;6231468;28;20247;-67
2022/08/19 16:19:36;;;;;;;4.90;3.70;;;27.50;73.30;;;;;;6230504;28;20236;-66
2022/08/19 16:22:41;;;;;;;8.40;3.90;;;27.50;73.90;;;;;;6230014;28;20233;-66
2022/08/19 16:25:44;;;;;;;12.67;3.70;;;27.40;74.40;;;;;;6229409;28;20237;-66
2022/08/19 16:28:48;;;;;;;9.50;4.67;;;27.40;75.20;;;;;;6229842;28;20247;-68
2022/08/19 16:31:53;;;;;;;8.43;4.27;;;27.40;76.00;;;;;;6224185;28;20263;-68
2022/08/19 16:34:56;;;;;;;7.50;3.60;;;27.30;76.20;;;;;;6229214;28;20286;-67